Impacts TAF Board
For situational awareness. Not to be used for flight planning purposes.
IDs:

KNEW - New Orleans/Lakefron, LA, US

Issued at 0532 UTC 17 Feb 2019
Updated at 0948 UTC 17 Feb 2019
Potential Impact None Slight Moderate High
Time<<17/22Z 17/23Z 18/00Z 18/01Z 18/02Z 18/03Z 18/04Z 18/05Z 18/06Z 18/07Z 18/08Z 18/09Z 18/10Z>>
Type PRVL PRVL PRVL PRVL PRVL PRVL PRVL PRVL
VIS >6 >6 >6 >6 >6 >6 >6 6
CIG 60 60 60 60 60 60 60 5
Cover OVC OVC OVC OVC OVC OVC OVC OVC
FltCat VFR VFR VFR VFR VFR VFR VFR IFR
WX -- -- -- -- -- -- -- BR
WDir 190 190 190 190 190 190 190 310
WSpd 8 8 8 8 8 8 8 5
WGst -- -- -- -- -- -- -- --
Raw TAF
KNEW 170532Z 1706/1806 17012KT P6SM OVC007
  FM170900 19006KT 2SM BR SCT003 OVC006
  TEMPO 1711/1714 1/4SM FG VV002
  FM171500 19007KT P6SM SCT022 OVC090
  FM171800 19008KT P6SM SCT050 OVC060
  FM180500 31005KT 6SM BR OVC005


METAR Board
For situational awareness. Not to be used for flight planning purposes.